sensor_id;sensor_type;location;lat;lon;timestamp;P1;durP1;ratioP1;P2;durP2;ratioP2
13487;SDS011;6816;48.506;9.050;2024-03-08T00:00:53;14.97;;;11.13;;
13487;SDS011;6816;48.506;9.050;2024-03-08T00:03:54;14.07;;;9.90;;
13487;SDS011;6816;48.506;9.050;2024-03-08T00:06:55;13.10;;;10.30;;
13487;SDS011;6816;48.506;9.050;2024-03-08T00:09:56;13.93;;;11.03;;
13487;SDS011;6816;48.506;9.050;2024-03-08T00:12:56;15.90;;;11.03;;
13487;SDS011;6816;48.506;9.050;2024-03-08T00:15:57;13.70;;;10.23;;
13487;SDS011;6816;48.506;9.050;2024-03-08T00:18:58;15.07;;;10.70;;
13487;SDS011;6816;48.506;9.050;2024-03-08T00:21:59;15.93;;;11.00;;
13487;SDS011;6816;48.506;9.050;2024-03-08T00:25:00;14.70;;;10.07;;
13487;SDS011;6816;48.506;9.050;2024-03-08T00:28:01;15.37;;;11.07;;
13487;SDS011;6816;48.506;9.050;2024-03-08T00:31:02;12.47;;;9.77;;
13487;SDS011;6816;48.506;9.050;2024-03-08T00:34:03;13.60;;;9.50;;
13487;SDS011;6816;48.506;9.050;2024-03-08T00:37:04;13.43;;;9.50;;
13487;SDS011;6816;48.506;9.050;2024-03-08T00:40:05;17.27;;;11.40;;
13487;SDS011;6816;48.506;9.050;2024-03-08T00:43:07;15.20;;;10.83;;
13487;SDS011;6816;48.506;9.050;2024-03-08T00:46:07;15.53;;;11.10;;
13487;SDS011;6816;48.506;9.050;2024-03-08T00:49:08;14.27;;;10.67;;
13487;SDS011;6816;48.506;9.050;2024-03-08T00:52:09;15.17;;;10.80;;
13487;SDS011;6816;48.506;9.050;2024-03-08T00:55:10;15.20;;;10.93;;
13487;SDS011;6816;48.506;9.050;2024-03-08T00:58:11;15.37;;;10.87;;
13487;SDS011;6816;48.506;9.050;2024-03-08T01:01:13;14.90;;;10.40;;
13487;SDS011;6816;48.506;9.050;2024-03-08T01:04:15;16.40;;;10.50;;
13487;SDS011;6816;48.506;9.050;2024-03-08T01:07:16;14.43;;;10.33;;
13487;SDS011;6816;48.506;9.050;2024-03-08T01:10:17;16.30;;;11.07;;
13487;SDS011;6816;48.506;9.050;2024-03-08T01:13:18;13.80;;;10.30;;
13487;SDS011;6816;48.506;9.050;2024-03-08T01:16:19;16.83;;;11.37;;
13487;SDS011;6816;48.506;9.050;2024-03-08T01:19:23;16.30;;;11.23;;
13487;SDS011;6816;48.506;9.050;2024-03-08T01:22:24;15.27;;;10.97;;
13487;SDS011;6816;48.506;9.050;2024-03-08T01:25:24;13.40;;;10.07;;
13487;SDS011;6816;48.506;9.050;2024-03-08T01:28:25;14.70;;;10.80;;
13487;SDS011;6816;48.506;9.050;2024-03-08T01:31:26;16.53;;;11.63;;
13487;SDS011;6816;48.506;9.050;2024-03-08T01:34:28;15.53;;;11.00;;
13487;SDS011;6816;48.506;9.050;2024-03-08T01:37:29;15.77;;;11.63;;
13487;SDS011;6816;48.506;9.050;2024-03-08T01:40:30;13.33;;;10.73;;
13487;SDS011;6816;48.506;9.050;2024-03-08T01:43:30;14.57;;;10.40;;
13487;SDS011;6816;48.506;9.050;2024-03-08T01:46:31;13.57;;;10.57;;
13487;SDS011;6816;48.506;9.050;2024-03-08T01:49:32;13.20;;;10.00;;
13487;SDS011;6816;48.506;9.050;2024-03-08T01:52:33;17.40;;;11.13;;
13487;SDS011;6816;48.506;9.050;2024-03-08T01:55:35;14.73;;;10.17;;
13487;SDS011;6816;48.506;9.050;2024-03-08T01:58:37;16.83;;;10.60;;
13487;SDS011;6816;48.506;9.050;2024-03-08T02:01:39;15.93;;;10.47;;
13487;SDS011;6816;48.506;9.050;2024-03-08T02:04:40;13.23;;;9.97;;
13487;SDS011;6816;48.506;9.050;2024-03-08T02:07:41;14.30;;;10.67;;
13487;SDS011;6816;48.506;9.050;2024-03-08T02:10:45;16.63;;;11.17;;
13487;SDS011;6816;48.506;9.050;2024-03-08T02:13:45;13.93;;;10.23;;
13487;SDS011;6816;48.506;9.050;2024-03-08T02:16:46;14.03;;;10.00;;
13487;SDS011;6816;48.506;9.050;2024-03-08T02:19:47;14.07;;;10.37;;
13487;SDS011;6816;48.506;9.050;2024-03-08T02:22:47;12.67;;;9.27;;
13487;SDS011;6816;48.506;9.050;2024-03-08T02:25:51;11.60;;;9.23;;
13487;SDS011;6816;48.506;9.050;2024-03-08T02:28:53;13.60;;;10.07;;
13487;SDS011;6816;48.506;9.050;2024-03-08T02:31:54;13.23;;;10.03;;
13487;SDS011;6816;48.506;9.050;2024-03-08T02:34:56;12.97;;;9.77;;
13487;SDS011;6816;48.506;9.050;2024-03-08T02:37:59;12.60;;;9.00;;
13487;SDS011;6816;48.506;9.050;2024-03-08T02:41:00;13.97;;;9.00;;
13487;SDS011;6816;48.506;9.050;2024-03-08T02:44:01;14.70;;;10.23;;
13487;SDS011;6816;48.506;9.050;2024-03-08T02:47:01;13.00;;;9.63;;
13487;SDS011;6816;48.506;9.050;2024-03-08T02:50:02;15.00;;;9.53;;
13487;SDS011;6816;48.506;9.050;2024-03-08T02:53:03;19.50;;;10.03;;
13487;SDS011;6816;48.506;9.050;2024-03-08T02:56:04;15.53;;;10.47;;
13487;SDS011;6816;48.506;9.050;2024-03-08T02:59:08;11.87;;;9.33;;
13487;SDS011;6816;48.506;9.050;2024-03-08T03:02:09;14.23;;;10.20;;
13487;SDS011;6816;48.506;9.050;2024-03-08T03:05:10;14.87;;;10.03;;
13487;SDS011;6816;48.506;9.050;2024-03-08T03:08:11;15.90;;;10.63;;
13487;SDS011;6816;48.506;9.050;2024-03-08T03:11:13;14.70;;;10.60;;
13487;SDS011;6816;48.506;9.050;2024-03-08T03:14:13;15.67;;;11.37;;
13487;SDS011;6816;48.506;9.050;2024-03-08T03:17:16;14.40;;;10.00;;
13487;SDS011;6816;48.506;9.050;2024-03-08T03:20:17;14.50;;;11.17;;
13487;SDS011;6816;48.506;9.050;2024-03-08T03:23:26;13.33;;;9.57;;
13487;SDS011;6816;48.506;9.050;2024-03-08T03:26:26;14.33;;;9.93;;
13487;SDS011;6816;48.506;9.050;2024-03-08T03:29:27;15.90;;;10.50;;
13487;SDS011;6816;48.506;9.050;2024-03-08T03:32:27;14.87;;;9.70;;
13487;SDS011;6816;48.506;9.050;2024-03-08T03:35:28;14.93;;;10.17;;
13487;SDS011;6816;48.506;9.050;2024-03-08T03:38:29;13.87;;;9.70;;
13487;SDS011;6816;48.506;9.050;2024-03-08T03:41:30;12.23;;;9.00;;
13487;SDS011;6816;48.506;9.050;2024-03-08T03:44:30;13.23;;;9.07;;
13487;SDS011;6816;48.506;9.050;2024-03-08T03:47:32;12.73;;;9.10;;
13487;SDS011;6816;48.506;9.050;2024-03-08T03:50:33;16.83;;;9.43;;
13487;SDS011;6816;48.506;9.050;2024-03-08T03:53:36;17.03;;;9.97;;
13487;SDS011;6816;48.506;9.050;2024-03-08T03:56:37;14.90;;;10.07;;
13487;SDS011;6816;48.506;9.050;2024-03-08T03:59:38;12.97;;;8.97;;
13487;SDS011;6816;48.506;9.050;2024-03-08T04:02:39;12.57;;;8.73;;
13487;SDS011;6816;48.506;9.050;2024-03-08T04:05:41;13.53;;;9.40;;
13487;SDS011;6816;48.506;9.050;2024-03-08T04:08:41;11.17;;;8.37;;
13487;SDS011;6816;48.506;9.050;2024-03-08T04:11:42;14.97;;;9.07;;
13487;SDS011;6816;48.506;9.050;2024-03-08T04:14:43;15.30;;;9.20;;
13487;SDS011;6816;48.506;9.050;2024-03-08T04:17:43;13.97;;;9.00;;
13487;SDS011;6816;48.506;9.050;2024-03-08T04:20:45;12.40;;;8.80;;
13487;SDS011;6816;48.506;9.050;2024-03-08T04:23:46;13.73;;;9.03;;
13487;SDS011;6816;48.506;9.050;2024-03-08T04:26:47;12.90;;;9.33;;
13487;SDS011;6816;48.506;9.050;2024-03-08T04:29:47;11.67;;;8.33;;
13487;SDS011;6816;48.506;9.050;2024-03-08T04:32:48;14.37;;;9.60;;
13487;SDS011;6816;48.506;9.050;2024-03-08T04:35:49;12.83;;;9.23;;
13487;SDS011;6816;48.506;9.050;2024-03-08T04:38:49;13.77;;;9.17;;
13487;SDS011;6816;48.506;9.050;2024-03-08T04:41:51;12.60;;;8.47;;
13487;SDS011;6816;48.506;9.050;2024-03-08T04:44:51;11.10;;;8.40;;
13487;SDS011;6816;48.506;9.050;2024-03-08T04:47:53;11.07;;;8.13;;
13487;SDS011;6816;48.506;9.050;2024-03-08T04:50:54;11.67;;;8.50;;
13487;SDS011;6816;48.506;9.050;2024-03-08T04:53:55;10.00;;;7.17;;
13487;SDS011;6816;48.506;9.050;2024-03-08T04:56:57;13.17;;;9.20;;
13487;SDS011;6816;48.506;9.050;2024-03-08T05:00:00;13.17;;;9.10;;
13487;SDS011;6816;48.506;9.050;2024-03-08T05:03:01;11.43;;;8.27;;
13487;SDS011;6816;48.506;9.050;2024-03-08T05:06:02;12.63;;;9.00;;
13487;SDS011;6816;48.506;9.050;2024-03-08T05:09:02;13.60;;;9.23;;
13487;SDS011;6816;48.506;9.050;2024-03-08T05:12:23;11.77;;;8.40;;
13487;SDS011;6816;48.506;9.050;2024-03-08T05:15:24;12.57;;;9.43;;
13487;SDS011;6816;48.506;9.050;2024-03-08T05:18:24;13.53;;;9.43;;
13487;SDS011;6816;48.506;9.050;2024-03-08T05:21:28;13.40;;;9.43;;
13487;SDS011;6816;48.506;9.050;2024-03-08T05:24:31;11.80;;;8.93;;
13487;SDS011;6816;48.506;9.050;2024-03-08T05:27:32;13.20;;;8.17;;
13487;SDS011;6816;48.506;9.050;2024-03-08T05:30:32;12.47;;;8.13;;
13487;SDS011;6816;48.506;9.050;2024-03-08T05:33:33;12.07;;;8.53;;
13487;SDS011;6816;48.506;9.050;2024-03-08T05:36:36;13.90;;;9.17;;
13487;SDS011;6816;48.506;9.050;2024-03-08T05:39:37;13.33;;;9.57;;
13487;SDS011;6816;48.506;9.050;2024-03-08T05:42:38;15.70;;;9.47;;
13487;SDS011;6816;48.506;9.050;2024-03-08T05:45:38;12.67;;;9.63;;
13487;SDS011;6816;48.506;9.050;2024-03-08T05:48:39;12.63;;;9.60;;
13487;SDS011;6816;48.506;9.050;2024-03-08T05:51:40;14.30;;;9.90;;
13487;SDS011;6816;48.506;9.050;2024-03-08T05:54:41;13.60;;;9.43;;
13487;SDS011;6816;48.506;9.050;2024-03-08T05:57:41;16.13;;;9.60;;
13487;SDS011;6816;48.506;9.050;2024-03-08T06:00:42;14.10;;;10.17;;
13487;SDS011;6816;48.506;9.050;2024-03-08T06:03:42;14.50;;;9.37;;
13487;SDS011;6816;48.506;9.050;2024-03-08T06:06:47;13.43;;;9.47;;
13487;SDS011;6816;48.506;9.050;2024-03-08T06:09:48;12.83;;;9.37;;
13487;SDS011;6816;48.506;9.050;2024-03-08T06:12:49;11.80;;;8.97;;
13487;SDS011;6816;48.506;9.050;2024-03-08T06:15:50;10.83;;;8.80;;
13487;SDS011;6816;48.506;9.050;2024-03-08T06:18:51;11.97;;;9.00;;
13487;SDS011;6816;48.506;9.050;2024-03-08T06:21:51;14.10;;;10.43;;
13487;SDS011;6816;48.506;9.050;2024-03-08T06:24:52;14.03;;;9.70;;
13487;SDS011;6816;48.506;9.050;2024-03-08T06:27:54;14.53;;;10.27;;
13487;SDS011;6816;48.506;9.050;2024-03-08T06:30:54;12.40;;;9.00;;
13487;SDS011;6816;48.506;9.050;2024-03-08T06:33:55;12.63;;;8.80;;
13487;SDS011;6816;48.506;9.050;2024-03-08T06:36:55;11.83;;;9.20;;
13487;SDS011;6816;48.506;9.050;2024-03-08T06:40:01;14.43;;;10.20;;
13487;SDS011;6816;48.506;9.050;2024-03-08T06:43:03;15.13;;;10.10;;
13487;SDS011;6816;48.506;9.050;2024-03-08T06:46:06;16.30;;;10.60;;
13487;SDS011;6816;48.506;9.050;2024-03-08T06:49:07;13.67;;;10.27;;
13487;SDS011;6816;48.506;9.050;2024-03-08T06:52:09;13.53;;;10.40;;
13487;SDS011;6816;48.506;9.050;2024-03-08T06:55:10;12.73;;;9.77;;
13487;SDS011;6816;48.506;9.050;2024-03-08T06:58:11;16.33;;;11.30;;
13487;SDS011;6816;48.506;9.050;2024-03-08T07:01:13;15.87;;;11.70;;
13487;SDS011;6816;48.506;9.050;2024-03-08T07:04:14;15.30;;;10.77;;
13487;SDS011;6816;48.506;9.050;2024-03-08T07:07:15;14.63;;;10.30;;
13487;SDS011;6816;48.506;9.050;2024-03-08T07:10:15;19.00;;;10.67;;
13487;SDS011;6816;48.506;9.050;2024-03-08T07:13:16;15.93;;;10.57;;
13487;SDS011;6816;48.506;9.050;2024-03-08T07:16:17;12.77;;;10.10;;
13487;SDS011;6816;48.506;9.050;2024-03-08T07:19:18;12.63;;;10.33;;
13487;SDS011;6816;48.506;9.050;2024-03-08T07:22:19;15.83;;;11.27;;
13487;SDS011;6816;48.506;9.050;2024-03-08T07:25:20;15.27;;;10.97;;
13487;SDS011;6816;48.506;9.050;2024-03-08T07:28:21;16.63;;;11.33;;
13487;SDS011;6816;48.506;9.050;2024-03-08T07:31:21;14.37;;;10.77;;
13487;SDS011;6816;48.506;9.050;2024-03-08T07:34:37;15.47;;;11.30;;
13487;SDS011;6816;48.506;9.050;2024-03-08T07:37:39;13.20;;;10.80;;
13487;SDS011;6816;48.506;9.050;2024-03-08T07:40:40;16.07;;;11.17;;
13487;SDS011;6816;48.506;9.050;2024-03-08T07:43:44;15.77;;;11.67;;
13487;SDS011;6816;48.506;9.050;2024-03-08T07:46:45;12.43;;;9.97;;
13487;SDS011;6816;48.506;9.050;2024-03-08T07:49:45;15.70;;;10.97;;
13487;SDS011;6816;48.506;9.050;2024-03-08T07:52:46;13.93;;;10.47;;
13487;SDS011;6816;48.506;9.050;2024-03-08T07:55:48;14.30;;;11.57;;
13487;SDS011;6816;48.506;9.050;2024-03-08T07:58:48;14.63;;;11.10;;
13487;SDS011;6816;48.506;9.050;2024-03-08T08:01:49;16.00;;;11.43;;
13487;SDS011;6816;48.506;9.050;2024-03-08T08:04:49;14.07;;;11.50;;
13487;SDS011;6816;48.506;9.050;2024-03-08T08:07:50;13.63;;;10.93;;
13487;SDS011;6816;48.506;9.050;2024-03-08T08:10:53;13.73;;;10.57;;
13487;SDS011;6816;48.506;9.050;2024-03-08T08:13:53;14.13;;;11.10;;
13487;SDS011;6816;48.506;9.050;2024-03-08T08:16:54;14.43;;;11.23;;
13487;SDS011;6816;48.506;9.050;2024-03-08T08:19:57;13.57;;;10.77;;
13487;SDS011;6816;48.506;9.050;2024-03-08T08:22:57;14.27;;;11.07;;
13487;SDS011;6816;48.506;9.050;2024-03-08T08:25:59;15.13;;;10.87;;
13487;SDS011;6816;48.506;9.050;2024-03-08T08:28:59;14.60;;;10.43;;
13487;SDS011;6816;48.506;9.050;2024-03-08T08:32:00;14.53;;;10.60;;
13487;SDS011;6816;48.506;9.050;2024-03-08T08:35:01;12.33;;;10.40;;
13487;SDS011;6816;48.506;9.050;2024-03-08T08:38:04;14.47;;;10.60;;
13487;SDS011;6816;48.506;9.050;2024-03-08T08:41:05;14.53;;;10.57;;
13487;SDS011;6816;48.506;9.050;2024-03-08T08:44:06;15.20;;;11.57;;
13487;SDS011;6816;48.506;9.050;2024-03-08T08:47:09;15.00;;;10.33;;
13487;SDS011;6816;48.506;9.050;2024-03-08T08:50:09;12.17;;;10.43;;
13487;SDS011;6816;48.506;9.050;2024-03-08T08:53:11;13.20;;;9.90;;
13487;SDS011;6816;48.506;9.050;2024-03-08T08:56:12;13.13;;;10.00;;
13487;SDS011;6816;48.506;9.050;2024-03-08T08:59:13;12.07;;;10.07;;
13487;SDS011;6816;48.506;9.050;2024-03-08T09:02:14;13.27;;;10.07;;
13487;SDS011;6816;48.506;9.050;2024-03-08T09:05:16;12.80;;;10.03;;
13487;SDS011;6816;48.506;9.050;2024-03-08T09:08:17;14.07;;;10.83;;
13487;SDS011;6816;48.506;9.050;2024-03-08T09:11:18;12.23;;;9.83;;
13487;SDS011;6816;48.506;9.050;2024-03-08T09:14:18;10.87;;;9.40;;
13487;SDS011;6816;48.506;9.050;2024-03-08T09:17:20;13.83;;;9.90;;
13487;SDS011;6816;48.506;9.050;2024-03-08T09:20:21;12.73;;;10.73;;
13487;SDS011;6816;48.506;9.050;2024-03-08T09:23:21;11.50;;;10.00;;
13487;SDS011;6816;48.506;9.050;2024-03-08T09:26:22;12.17;;;10.00;;
13487;SDS011;6816;48.506;9.050;2024-03-08T09:29:22;13.23;;;10.53;;
13487;SDS011;6816;48.506;9.050;2024-03-08T09:32:23;12.90;;;10.03;;
13487;SDS011;6816;48.506;9.050;2024-03-08T09:35:24;13.07;;;10.27;;
13487;SDS011;6816;48.506;9.050;2024-03-08T09:38:24;12.20;;;9.57;;
13487;SDS011;6816;48.506;9.050;2024-03-08T09:41:25;11.63;;;10.03;;
13487;SDS011;6816;48.506;9.050;2024-03-08T09:44:26;12.20;;;9.30;;
13487;SDS011;6816;48.506;9.050;2024-03-08T09:47:28;11.50;;;9.57;;
13487;SDS011;6816;48.506;9.050;2024-03-08T09:50:33;13.73;;;11.03;;
13487;SDS011;6816;48.506;9.050;2024-03-08T09:53:34;12.67;;;9.90;;
13487;SDS011;6816;48.506;9.050;2024-03-08T09:56:35;12.20;;;10.47;;
13487;SDS011;6816;48.506;9.050;2024-03-08T09:59:38;12.83;;;9.70;;
13487;SDS011;6816;48.506;9.050;2024-03-08T10:02:38;11.97;;;10.17;;
13487;SDS011;6816;48.506;9.050;2024-03-08T10:05:39;12.27;;;9.97;;
13487;SDS011;6816;48.506;9.050;2024-03-08T10:08:40;12.93;;;9.93;;
13487;SDS011;6816;48.506;9.050;2024-03-08T10:11:41;12.77;;;9.80;;
13487;SDS011;6816;48.506;9.050;2024-03-08T10:14:42;10.13;;;8.37;;
13487;SDS011;6816;48.506;9.050;2024-03-08T10:17:43;10.40;;;9.13;;
13487;SDS011;6816;48.506;9.050;2024-03-08T10:20:44;12.23;;;9.80;;
13487;SDS011;6816;48.506;9.050;2024-03-08T10:23:45;11.70;;;9.37;;
13487;SDS011;6816;48.506;9.050;2024-03-08T10:26:46;13.80;;;10.23;;
13487;SDS011;6816;48.506;9.050;2024-03-08T10:29:48;11.30;;;9.27;;
13487;SDS011;6816;48.506;9.050;2024-03-08T10:32:49;10.83;;;9.33;;
13487;SDS011;6816;48.506;9.050;2024-03-08T10:35:49;11.10;;;9.17;;
13487;SDS011;6816;48.506;9.050;2024-03-08T10:38:51;12.73;;;9.70;;
13487;SDS011;6816;48.506;9.050;2024-03-08T10:41:56;11.47;;;9.93;;
13487;SDS011;6816;48.506;9.050;2024-03-08T10:45:04;11.77;;;9.83;;
13487;SDS011;6816;48.506;9.050;2024-03-08T10:48:28;10.67;;;9.53;;
13487;SDS011;6816;48.506;9.050;2024-03-08T10:51:32;12.40;;;9.43;;
13487;SDS011;6816;48.506;9.050;2024-03-08T10:54:36;10.80;;;9.00;;
13487;SDS011;6816;48.506;9.050;2024-03-08T10:57:40;11.00;;;8.87;;
13487;SDS011;6816;48.506;9.050;2024-03-08T11:00:42;9.87;;;8.83;;
13487;SDS011;6816;48.506;9.050;2024-03-08T11:03:44;11.37;;;9.67;;
13487;SDS011;6816;48.506;9.050;2024-03-08T11:06:45;11.10;;;9.40;;
13487;SDS011;6816;48.506;9.050;2024-03-08T11:09:47;10.87;;;9.17;;
13487;SDS011;6816;48.506;9.050;2024-03-08T11:12:48;10.43;;;8.77;;
13487;SDS011;6816;48.506;9.050;2024-03-08T11:15:49;10.93;;;9.47;;
13487;SDS011;6816;48.506;9.050;2024-03-08T11:18:50;12.60;;;9.53;;
13487;SDS011;6816;48.506;9.050;2024-03-08T11:21:57;10.90;;;8.77;;
13487;SDS011;6816;48.506;9.050;2024-03-08T11:25:00;11.27;;;8.60;;
13487;SDS011;6816;48.506;9.050;2024-03-08T11:31:23;11.60;;;9.77;;
13487;SDS011;6816;48.506;9.050;2024-03-08T11:34:25;14.57;;;9.17;;
13487;SDS011;6816;48.506;9.050;2024-03-08T11:37:26;10.87;;;9.73;;
13487;SDS011;6816;48.506;9.050;2024-03-08T11:40:30;12.80;;;9.87;;
13487;SDS011;6816;48.506;9.050;2024-03-08T11:43:33;11.13;;;9.50;;
13487;SDS011;6816;48.506;9.050;2024-03-08T11:46:33;11.30;;;9.43;;
13487;SDS011;6816;48.506;9.050;2024-03-08T11:49:34;11.73;;;9.53;;
13487;SDS011;6816;48.506;9.050;2024-03-08T11:52:35;11.03;;;9.43;;
13487;SDS011;6816;48.506;9.050;2024-03-08T11:55:35;10.87;;;9.17;;
13487;SDS011;6816;48.506;9.050;2024-03-08T11:58:36;11.30;;;9.23;;
13487;SDS011;6816;48.506;9.050;2024-03-08T12:01:37;12.47;;;10.00;;
13487;SDS011;6816;48.506;9.050;2024-03-08T12:04:37;12.07;;;9.67;;
13487;SDS011;6816;48.506;9.050;2024-03-08T12:07:38;11.67;;;9.90;;
13487;SDS011;6816;48.506;9.050;2024-03-08T12:10:40;10.60;;;9.30;;
13487;SDS011;6816;48.506;9.050;2024-03-08T12:13:41;11.23;;;9.67;;
13487;SDS011;6816;48.506;9.050;2024-03-08T12:16:41;11.93;;;10.47;;
13487;SDS011;6816;48.506;9.050;2024-03-08T12:19:45;10.90;;;9.13;;
13487;SDS011;6816;48.506;9.050;2024-03-08T12:22:47;12.53;;;10.40;;
13487;SDS011;6816;48.506;9.050;2024-03-08T12:25:48;13.53;;;10.50;;
13487;SDS011;6816;48.506;9.050;2024-03-08T12:28:49;11.80;;;10.47;;
13487;SDS011;6816;48.506;9.050;2024-03-08T12:31:54;12.73;;;10.40;;
13487;SDS011;6816;48.506;9.050;2024-03-08T12:34:58;11.47;;;10.23;;
13487;SDS011;6816;48.506;9.050;2024-03-08T12:37:59;12.67;;;11.07;;
13487;SDS011;6816;48.506;9.050;2024-03-08T12:41:00;10.93;;;9.83;;
13487;SDS011;6816;48.506;9.050;2024-03-08T12:44:01;12.53;;;9.73;;
13487;SDS011;6816;48.506;9.050;2024-03-08T12:47:03;11.77;;;9.03;;
13487;SDS011;6816;48.506;9.050;2024-03-08T12:50:03;10.77;;;9.63;;
13487;SDS011;6816;48.506;9.050;2024-03-08T12:53:04;11.27;;;9.60;;
13487;SDS011;6816;48.506;9.050;2024-03-08T12:56:05;11.57;;;9.93;;
13487;SDS011;6816;48.506;9.050;2024-03-08T12:59:08;12.80;;;10.90;;
13487;SDS011;6816;48.506;9.050;2024-03-08T13:02:10;13.83;;;11.40;;
13487;SDS011;6816;48.506;9.050;2024-03-08T13:05:11;14.33;;;11.00;;
13487;SDS011;6816;48.506;9.050;2024-03-08T13:08:14;11.87;;;10.53;;
13487;SDS011;6816;48.506;9.050;2024-03-08T13:11:15;12.10;;;9.93;;
13487;SDS011;6816;48.506;9.050;2024-03-08T13:14:17;14.13;;;10.53;;
13487;SDS011;6816;48.506;9.050;2024-03-08T13:17:17;13.67;;;11.07;;
13487;SDS011;6816;48.506;9.050;2024-03-08T13:20:18;12.27;;;10.73;;
13487;SDS011;6816;48.506;9.050;2024-03-08T13:23:19;12.60;;;10.23;;
13487;SDS011;6816;48.506;9.050;2024-03-08T13:26:20;10.53;;;9.47;;
13487;SDS011;6816;48.506;9.050;2024-03-08T13:29:21;12.20;;;10.77;;
13487;SDS011;6816;48.506;9.050;2024-03-08T13:32:22;11.60;;;9.93;;
13487;SDS011;6816;48.506;9.050;2024-03-08T13:35:27;11.77;;;10.40;;
13487;SDS011;6816;48.506;9.050;2024-03-08T13:38:30;12.90;;;10.50;;
13487;SDS011;6816;48.506;9.050;2024-03-08T13:41:32;12.93;;;11.00;;
13487;SDS011;6816;48.506;9.050;2024-03-08T13:44:32;12.17;;;10.87;;
13487;SDS011;6816;48.506;9.050;2024-03-08T13:47:33;13.43;;;11.53;;
13487;SDS011;6816;48.506;9.050;2024-03-08T13:50:34;13.37;;;10.87;;
13487;SDS011;6816;48.506;9.050;2024-03-08T13:53:35;12.43;;;10.77;;
13487;SDS011;6816;48.506;9.050;2024-03-08T13:56:35;13.23;;;11.03;;
13487;SDS011;6816;48.506;9.050;2024-03-08T13:59:37;12.83;;;11.17;;
13487;SDS011;6816;48.506;9.050;2024-03-08T14:02:38;13.73;;;11.43;;
13487;SDS011;6816;48.506;9.050;2024-03-08T14:05:41;12.13;;;10.90;;
13487;SDS011;6816;48.506;9.050;2024-03-08T14:08:42;13.97;;;12.07;;
13487;SDS011;6816;48.506;9.050;2024-03-08T14:11:43;13.60;;;11.30;;
13487;SDS011;6816;48.506;9.050;2024-03-08T14:14:47;12.57;;;11.27;;
13487;SDS011;6816;48.506;9.050;2024-03-08T14:17:54;13.40;;;11.67;;
13487;SDS011;6816;48.506;9.050;2024-03-08T14:20:55;12.37;;;10.90;;
13487;SDS011;6816;48.506;9.050;2024-03-08T14:23:55;11.67;;;10.33;;
13487;SDS011;6816;48.506;9.050;2024-03-08T14:26:56;12.17;;;10.87;;
13487;SDS011;6816;48.506;9.050;2024-03-08T14:29:58;11.80;;;10.57;;
13487;SDS011;6816;48.506;9.050;2024-03-08T14:33:00;12.43;;;11.13;;
13487;SDS011;6816;48.506;9.050;2024-03-08T14:36:01;11.77;;;9.80;;
13487;SDS011;6816;48.506;9.050;2024-03-08T14:39:02;11.77;;;9.97;;
13487;SDS011;6816;48.506;9.050;2024-03-08T14:42:03;11.20;;;9.93;;
13487;SDS011;6816;48.506;9.050;2024-03-08T14:45:04;12.97;;;10.03;;
13487;SDS011;6816;48.506;9.050;2024-03-08T14:48:05;13.03;;;10.50;;
13487;SDS011;6816;48.506;9.050;2024-03-08T14:51:06;11.83;;;9.17;;
13487;SDS011;6816;48.506;9.050;2024-03-08T14:54:10;11.53;;;9.17;;
13487;SDS011;6816;48.506;9.050;2024-03-08T14:57:11;12.27;;;9.80;;
13487;SDS011;6816;48.506;9.050;2024-03-08T15:00:12;11.37;;;9.93;;
13487;SDS011;6816;48.506;9.050;2024-03-08T15:03:36;11.77;;;9.47;;
13487;SDS011;6816;48.506;9.050;2024-03-08T15:06:40;12.13;;;9.60;;
13487;SDS011;6816;48.506;9.050;2024-03-08T15:09:42;12.90;;;9.80;;
13487;SDS011;6816;48.506;9.050;2024-03-08T15:12:44;11.10;;;9.70;;
13487;SDS011;6816;48.506;9.050;2024-03-08T15:15:46;11.33;;;9.40;;
13487;SDS011;6816;48.506;9.050;2024-03-08T15:18:51;11.90;;;9.23;;
13487;SDS011;6816;48.506;9.050;2024-03-08T15:21:53;11.57;;;8.67;;
13487;SDS011;6816;48.506;9.050;2024-03-08T15:24:56;11.80;;;9.20;;
13487;SDS011;6816;48.506;9.050;2024-03-08T15:27:58;11.50;;;9.37;;
13487;SDS011;6816;48.506;9.050;2024-03-08T15:30:58;11.73;;;9.50;;
13487;SDS011;6816;48.506;9.050;2024-03-08T15:34:05;10.83;;;9.23;;
13487;SDS011;6816;48.506;9.050;2024-03-08T15:37:06;11.50;;;9.23;;
13487;SDS011;6816;48.506;9.050;2024-03-08T15:40:08;11.67;;;9.23;;
13487;SDS011;6816;48.506;9.050;2024-03-08T15:43:18;11.47;;;9.33;;
13487;SDS011;6816;48.506;9.050;2024-03-08T15:46:19;12.73;;;9.63;;
13487;SDS011;6816;48.506;9.050;2024-03-08T15:49:22;12.87;;;9.67;;
13487;SDS011;6816;48.506;9.050;2024-03-08T15:52:24;11.90;;;9.60;;
13487;SDS011;6816;48.506;9.050;2024-03-08T15:55:25;11.23;;;9.43;;
13487;SDS011;6816;48.506;9.050;2024-03-08T15:58:27;11.97;;;9.23;;
13487;SDS011;6816;48.506;9.050;2024-03-08T16:01:28;12.07;;;9.37;;
13487;SDS011;6816;48.506;9.050;2024-03-08T16:04:28;12.57;;;9.70;;
13487;SDS011;6816;48.506;9.050;2024-03-08T16:07:29;13.17;;;9.13;;
13487;SDS011;6816;48.506;9.050;2024-03-08T16:10:31;11.67;;;9.37;;
13487;SDS011;6816;48.506;9.050;2024-03-08T16:13:34;13.23;;;10.20;;
13487;SDS011;6816;48.506;9.050;2024-03-08T16:16:38;12.43;;;10.00;;
13487;SDS011;6816;48.506;9.050;2024-03-08T16:19:39;13.90;;;10.67;;
13487;SDS011;6816;48.506;9.050;2024-03-08T16:22:44;12.97;;;9.80;;
13487;SDS011;6816;48.506;9.050;2024-03-08T16:25:45;13.33;;;10.03;;
13487;SDS011;6816;48.506;9.050;2024-03-08T16:28:46;12.37;;;9.67;;
13487;SDS011;6816;48.506;9.050;2024-03-08T16:31:47;11.60;;;9.33;;
13487;SDS011;6816;48.506;9.050;2024-03-08T16:34:48;13.77;;;9.67;;
13487;SDS011;6816;48.506;9.050;2024-03-08T16:37:51;14.67;;;11.03;;
13487;SDS011;6816;48.506;9.050;2024-03-08T16:40:52;13.53;;;10.30;;
13487;SDS011;6816;48.506;9.050;2024-03-08T16:43:54;14.00;;;11.30;;
13487;SDS011;6816;48.506;9.050;2024-03-08T16:46:58;15.27;;;11.37;;
13487;SDS011;6816;48.506;9.050;2024-03-08T16:49:59;13.53;;;10.73;;
13487;SDS011;6816;48.506;9.050;2024-03-08T16:53:00;13.43;;;10.70;;
13487;SDS011;6816;48.506;9.050;2024-03-08T16:56:01;13.17;;;10.13;;
13487;SDS011;6816;48.506;9.050;2024-03-08T16:59:02;11.47;;;9.83;;
13487;SDS011;6816;48.506;9.050;2024-03-08T17:02:04;14.67;;;10.60;;
13487;SDS011;6816;48.506;9.050;2024-03-08T17:05:05;13.00;;;9.87;;
13487;SDS011;6816;48.506;9.050;2024-03-08T17:08:08;14.70;;;10.10;;
13487;SDS011;6816;48.506;9.050;2024-03-08T17:11:10;12.17;;;9.57;;
13487;SDS011;6816;48.506;9.050;2024-03-08T17:14:11;13.67;;;10.10;;
13487;SDS011;6816;48.506;9.050;2024-03-08T17:17:12;15.73;;;9.53;;
13487;SDS011;6816;48.506;9.050;2024-03-08T17:20:14;12.73;;;10.27;;
13487;SDS011;6816;48.506;9.050;2024-03-08T17:23:19;11.80;;;9.57;;
13487;SDS011;6816;48.506;9.050;2024-03-08T17:26:21;13.83;;;9.67;;
13487;SDS011;6816;48.506;9.050;2024-03-08T17:29:22;14.73;;;11.00;;
13487;SDS011;6816;48.506;9.050;2024-03-08T17:32:23;21.77;;;15.23;;
13487;SDS011;6816;48.506;9.050;2024-03-08T17:35:27;20.47;;;14.97;;
13487;SDS011;6816;48.506;9.050;2024-03-08T17:38:29;17.60;;;12.57;;
13487;SDS011;6816;48.506;9.050;2024-03-08T17:41:31;15.07;;;11.67;;
13487;SDS011;6816;48.506;9.050;2024-03-08T17:44:32;15.47;;;11.53;;
13487;SDS011;6816;48.506;9.050;2024-03-08T17:47:32;14.40;;;10.37;;
13487;SDS011;6816;48.506;9.050;2024-03-08T17:50:33;10.43;;;8.40;;
13487;SDS011;6816;48.506;9.050;2024-03-08T17:53:34;13.93;;;8.83;;
13487;SDS011;6816;48.506;9.050;2024-03-08T17:56:35;10.40;;;8.40;;
13487;SDS011;6816;48.506;9.050;2024-03-08T17:59:36;13.37;;;9.33;;
13487;SDS011;6816;48.506;9.050;2024-03-08T18:02:37;13.43;;;9.90;;
13487;SDS011;6816;48.506;9.050;2024-03-08T18:05:37;12.77;;;9.93;;
13487;SDS011;6816;48.506;9.050;2024-03-08T18:08:41;12.67;;;9.43;;